Time;durP1;ratioP1;P1;durP2;ratioP2;P2;SDS_P1;SDS_P2;PMS_P1;PMS_P2;Temp;Humidity;BMP_temperature;BMP_pressure;BME280_temperature;BME280_humidity;BME280_pressure;Samples;Min_cycle;Max_cycle;Signal;HPM_P1;HPM_P2
2022/10/13 00:01:27;;;;;;;;;;;;;;;21.29;53.28;101707.84;5004031;28;2860;-67
2022/10/13 00:03:54;;;;;;;;;;;;;;;21.29;53.45;101710.00;5009498;28;2940;-68
2022/10/13 00:06:22;;;;;;;;;;;;;;;21.26;53.59;101706.25;5012480;28;2828;-67
2022/10/13 00:08:49;;;;;;;;;;;;;;;21.27;53.41;101704.84;5010370;28;2787;-67
2022/10/13 00:11:19;;;;;;;;;;;;;;;21.26;53.44;101697.59;5011051;28;2918;-67
2022/10/13 00:13:45;;;;;;;;;;;;;;;21.26;53.45;101691.84;5008860;28;3109;-68
2022/10/13 00:16:13;;;;;;;;;;;;;;;21.24;53.67;101694.59;5015916;28;1552;-67
2022/10/13 00:18:39;;;;;;;;;;;;;;;21.23;53.37;101693.09;5008255;28;2854;-67
2022/10/13 00:21:06;;;;;;;;;;;;;;;21.24;53.23;101697.50;5010638;28;2915;-67
2022/10/13 00:23:33;;;;;;;;;;;;;;;21.24;53.33;101700.38;5006550;28;2911;-68
2022/10/13 00:26:00;;;;;;;;;;;;;;;21.23;53.29;101692.34;5004900;28;2925;-67
2022/10/13 00:28:27;;;;;;;;;;;;;;;21.23;53.56;101695.97;5009199;28;2935;-67
2022/10/13 00:30:53;;;;;;;;;;;;;;;21.23;53.55;101698.84;5007583;28;2742;-67
2022/10/13 00:33:19;;;;;;;;;;;;;;;21.22;53.41;101691.63;5012371;28;2807;-67
2022/10/13 00:35:46;;;;;;;;;;;;;;;21.20;53.62;101688.63;5015721;28;2508;-67
2022/10/13 00:38:13;;;;;;;;;;;;;;;21.21;53.43;101690.13;5010788;28;2914;-67
2022/10/13 00:40:43;;;;;;;;;;;;;;;21.21;53.39;101684.38;5012846;28;2752;-67
2022/10/13 00:43:13;;;;;;;;;;;;;;;21.21;53.51;101689.34;5010722;28;2698;-68
2022/10/13 00:45:39;;;;;;;;;;;;;;;21.19;53.42;101690.00;5024439;28;2853;-68
2022/10/13 00:48:06;;;;;;;;;;;;;;;21.20;53.62;101688.63;5014041;28;2789;-68
2022/10/13 00:50:32;;;;;;;;;;;;;;;21.18;53.41;101687.75;5011096;28;2761;-68
2022/10/13 00:53:00;;;;;;;;;;;;;;;21.18;53.72;101691.38;5015343;28;2669;-68
2022/10/13 00:55:28;;;;;;;;;;;;;;;21.17;53.48;101687.00;5010685;28;2937;-68
2022/10/13 00:57:55;;;;;;;;;;;;;;;21.18;53.46;101685.63;5018541;28;2895;-67
2022/10/13 01:00:28;;;;;;;;;;;;;;;21.19;53.22;101681.38;5013208;28;2768;-67
2022/10/13 01:02:55;;;;;;;;;;;;;;;21.20;53.30;101688.63;5016738;28;2835;-67
2022/10/13 01:05:21;;;;;;;;;;;;;;;21.22;53.30;101685.13;5014357;28;2815;-67
2022/10/13 01:07:48;;;;;;;;;;;;;;;21.21;53.25;101684.38;5024377;28;2728;-67
2022/10/13 01:10:23;;;;;;;;;;;;;;;21.23;53.00;101686.59;5012517;28;2950;-67
2022/10/13 01:12:51;;;;;;;;;;;;;;;21.25;52.89;101689.59;5017274;28;2760;-68
2022/10/13 01:15:22;;;;;;;;;;;;;;;21.24;52.93;101683.09;5009566;28;2829;-68
2022/10/13 01:17:55;;;;;;;;;;;;;;;21.24;52.91;101680.22;5011335;28;2792;-67
2022/10/13 01:20:30;;;;;;;;;;;;;;;21.24;53.23;101676.59;5012524;28;2899;-67
2022/10/13 01:23:09;;;;;;;;;;;;;;;21.24;53.18;101676.59;5035193;28;1772;-67
2022/10/13 01:25:36;;;;;;;;;;;;;;;21.23;53.32;101675.06;5012506;28;3134;-67
2022/10/13 01:28:21;;;;;;;;;;;;;;;21.24;53.19;101660.03;5013041;28;2958;-67
2022/10/13 01:30:49;;;;;;;;;;;;;;;21.23;53.24;101660.66;5008476;28;2876;-67
2022/10/13 01:33:18;;;;;;;;;;;;;;;21.23;53.19;101663.56;5010718;28;2782;-67
2022/10/13 01:35:48;;;;;;;;;;;;;;;21.22;53.25;101665.69;5017603;28;1695;-67
2022/10/13 01:38:33;;;;;;;;;;;;;;;21.22;53.37;101657.06;5010785;28;2723;-67
2022/10/13 01:41:08;;;;;;;;;;;;;;;21.22;53.26;101656.31;5011006;28;3128;-68
2022/10/13 01:43:44;;;;;;;;;;;;;;;21.21;53.67;101655.56;5014096;28;2759;-67
2022/10/13 01:46:15;;;;;;;;;;;;;;;21.21;53.61;101655.56;5027968;28;3177;-68
2022/10/13 01:48:41;;;;;;;;;;;;;;;21.20;53.48;101654.06;5012323;28;2776;-68
2022/10/13 01:51:08;;;;;;;;;;;;;;;21.20;53.51;101648.28;5013364;28;2626;-67
2022/10/13 01:53:34;;;;;;;;;;;;;;;21.20;53.53;101636.03;5025042;28;2802;-67
2022/10/13 01:56:01;;;;;;;;;;;;;;;21.19;53.40;101641.03;5008636;28;3052;-67
2022/10/13 01:58:28;;;;;;;;;;;;;;;21.19;53.50;101641.03;5010735;28;3375;-67
2022/10/13 02:00:57;;;;;;;;;;;;;;;21.19;53.57;101635.28;5026974;28;2873;-67
2022/10/13 02:03:25;;;;;;;;;;;;;;;21.18;53.86;101633.78;5009977;28;2833;-67
2022/10/13 02:05:54;;;;;;;;;;;;;;;21.18;53.81;101630.91;5020189;28;2775;-69
2022/10/13 02:08:24;;;;;;;;;;;;;;;21.17;53.54;101623.66;5026621;28;2935;-66
2022/10/13 02:10:52;;;;;;;;;;;;;;;21.17;53.74;101623.66;5025931;28;2805;-67
2022/10/13 02:13:19;;;;;;;;;;;;;;;21.17;53.58;101626.53;5029059;28;2804;-67
2022/10/13 02:15:46;;;;;;;;;;;;;;;21.17;53.79;101626.53;5014268;28;1876;-67
2022/10/13 02:18:13;;;;;;;;;;;;;;;21.15;53.70;101623.53;5009502;28;2919;-67
2022/10/13 02:20:40;;;;;;;;;;;;;;;21.15;53.63;101617.03;5013529;28;2950;-67
2022/10/13 02:23:08;;;;;;;;;;;;;;;21.16;53.70;101618.50;5012514;28;2798;-67
2022/10/13 02:25:34;;;;;;;;;;;;;;;21.14;53.55;101610.50;5014133;28;3052;-67
2022/10/13 02:28:00;;;;;;;;;;;;;;;21.13;53.72;101603.25;5012170;28;2903;-67
2022/10/13 02:30:31;;;;;;;;;;;;;;;21.13;53.53;101603.25;5026589;28;2812;-68
2022/10/13 02:32:58;;;;;;;;;;;;;;;21.14;53.54;101598.97;5015503;28;2728;-68
2022/10/13 02:35:24;;;;;;;;;;;;;;;21.13;53.67;101600.38;5010638;28;2858;-67
2022/10/13 02:37:51;;;;;;;;;;;;;;;21.12;53.50;101593.13;5011740;28;2665;-68
2022/10/13 02:40:17;;;;;;;;;;;;;;;21.15;53.31;101608.41;5011364;28;2987;-69
2022/10/13 02:42:43;;;;;;;;;;;;;;;21.15;53.40;101599.75;5013217;28;2717;-69
2022/10/13 02:45:10;;;;;;;;;;;;;;;21.18;53.17;101593.44;5015240;28;2814;-68
2022/10/13 02:47:36;;;;;;;;;;;;;;;21.18;53.02;101599.22;5007343;28;2815;-69
2022/10/13 02:50:03;;;;;;;;;;;;;;;21.19;53.26;101589.19;5011247;28;2781;-70
2022/10/13 02:52:29;;;;;;;;;;;;;;;21.20;53.51;101590.69;5013694;28;2917;-70
2022/10/13 02:54:56;;;;;;;;;;;;;;;21.21;53.73;101595.06;5011660;28;2923;-71
2022/10/13 02:57:22;;;;;;;;;;;;;;;21.23;53.64;101582.91;5016654;28;1708;-69
2022/10/13 02:59:50;;;;;;;;;;;;;;;21.22;53.82;101593.69;5010987;28;2859;-69
2022/10/13 03:02:17;;;;;;;;;;;;;;;21.24;53.81;101590.16;5012445;28;1684;-68
2022/10/13 03:04:44;;;;;;;;;;;;;;;21.22;54.11;101593.69;5013872;28;2849;-70
2022/10/13 03:07:10;;;;;;;;;;;;;;;21.22;53.82;101585.03;5009325;28;2958;-68
2022/10/13 03:09:37;;;;;;;;;;;;;;;21.22;54.07;101582.16;5014751;28;2729;-68
2022/10/13 03:12:03;;;;;;;;;;;;;;;21.24;53.88;101573.63;5010207;28;2848;-68
2022/10/13 03:14:29;;;;;;;;;;;;;;;21.24;53.77;101596.66;5013818;28;2738;-68
2022/10/13 03:16:56;;;;;;;;;;;;;;;21.23;54.12;101592.28;5009143;28;2903;-68
2022/10/13 03:19:22;;;;;;;;;;;;;;;21.23;53.56;101583.63;5004311;28;2977;-67
2022/10/13 03:21:48;;;;;;;;;;;;;;;21.24;53.80;101585.16;5013502;28;2792;-67
2022/10/13 03:24:15;;;;;;;;;;;;;;;21.27;53.87;101578.09;5008433;28;2918;-68
2022/10/13 03:26:41;;;;;;;;;;;;;;;21.27;53.96;101583.88;5016719;28;1905;-68
2022/10/13 03:29:10;;;;;;;;;;;;;;;21.27;53.81;101575.22;5012583;28;2857;-67
2022/10/13 03:31:36;;;;;;;;;;;;;;;21.30;53.62;101576.06;5011100;28;2843;-67
2022/10/13 03:34:03;;;;;;;;;;;;;;;21.26;53.95;101570.88;5016713;28;2699;-68
2022/10/13 03:36:29;;;;;;;;;;;;;;;21.32;53.74;101579.06;5009750;28;2886;-68
2022/10/13 03:38:56;;;;;;;;;;;;;;;21.26;53.74;101570.88;5011454;28;2787;-68
2022/10/13 03:41:22;;;;;;;;;;;;;;;21.25;54.32;101569.34;5011024;28;2602;-68
2022/10/13 03:43:49;;;;;;;;;;;;;;;21.26;54.07;101559.34;5012399;28;2907;-68
2022/10/13 03:46:16;;;;;;;;;;;;;;;21.27;54.27;101548.56;5015705;28;2704;-67
2022/10/13 03:48:43;;;;;;;;;;;;;;;21.27;53.86;101560.81;5012655;28;2822;-68
2022/10/13 03:51:13;;;;;;;;;;;;;;;21.28;54.90;101565.22;5011141;28;2959;-68
2022/10/13 03:53:43;;;;;;;;;;;;;;;21.30;54.75;101567.44;5013691;28;2816;-68
2022/10/13 03:56:11;;;;;;;;;;;;;;;21.31;54.09;101566.06;5009492;28;2874;-68
2022/10/13 03:58:41;;;;;;;;;;;;;;;21.31;54.71;101574.72;5030866;28;1643;-68
2022/10/13 04:01:08;;;;;;;;;;;;;;;21.30;55.06;101561.69;5013093;28;2896;-68
2022/10/13 04:03:35;;;;;;;;;;;;;;;21.32;54.11;101562.53;5014718;28;2678;-68
2022/10/13 04:06:01;;;;;;;;;;;;;;;21.32;54.95;101561.78;5012770;28;2835;-68
2022/10/13 04:08:28;;;;;;;;;;;;;;;21.31;54.78;101555.28;5012961;28;2907;-68
2022/10/13 04:11:02;;;;;;;;;;;;;;;21.32;54.83;101550.25;5007749;28;2844;-68
2022/10/13 04:13:28;;;;;;;;;;;;;;;21.31;55.12;101554.53;5010769;28;2934;-68
2022/10/13 04:15:55;;;;;;;;;;;;;;;21.33;54.53;101563.28;5014620;28;2764;-68
2022/10/13 04:18:21;;;;;;;;;;;;;;;21.31;54.99;101543.75;5014586;28;2943;-69
2022/10/13 04:20:47;;;;;;;;;;;;;;;21.33;54.95;101552.50;5019808;28;1756;-69
2022/10/13 04:23:14;;;;;;;;;;;;;;;21.32;55.27;101553.16;5015573;28;2910;-68
2022/10/13 04:25:46;;;;;;;;;;;;;;;21.32;55.14;101553.88;5016405;28;2922;-69
2022/10/13 04:28:12;;;;;;;;;;;;;;;21.32;55.36;101556.03;5007548;28;3073;-68
2022/10/13 04:30:39;;;;;;;;;;;;;;;21.34;55.24;101547.50;5012247;28;2898;-68
2022/10/13 04:33:05;;;;;;;;;;;;;;;21.34;54.93;101553.25;5013684;28;3053;-68
2022/10/13 04:35:31;;;;;;;;;;;;;;;21.33;55.12;101552.50;5007593;28;2957;-69
2022/10/13 04:37:58;;;;;;;;;;;;;;;21.34;54.94;101548.22;5013278;28;2800;-68
2022/10/13 04:40:24;;;;;;;;;;;;;;;21.36;55.47;101543.97;5013450;28;2928;-68
2022/10/13 04:42:51;;;;;;;;;;;;;;;21.36;55.16;101538.97;5015036;28;2896;-68
2022/10/13 04:45:17;;;;;;;;;;;;;;;21.36;55.09;101538.22;5012526;28;3204;-67
2022/10/13 04:47:47;;;;;;;;;;;;;;;21.36;55.36;101536.06;5017307;28;2851;-68
2022/10/13 04:50:14;;;;;;;;;;;;;;;21.38;55.44;101538.31;5013924;28;2879;-67
2022/10/13 04:52:40;;;;;;;;;;;;;;;21.40;54.82;101538.44;5006716;28;2953;-68
2022/10/13 04:55:07;;;;;;;;;;;;;;;21.43;54.76;101542.94;5006373;28;3090;-66
2022/10/13 04:57:34;;;;;;;;;;;;;;;21.43;54.72;101529.28;5011227;28;3063;-66
2022/10/13 05:00:00;;;;;;;;;;;;;;;21.44;54.81;101544.44;5014975;28;3242;-66
2022/10/13 05:02:29;;;;;;;;;;;;;;;21.42;55.04;101532.81;5011733;28;3024;-68
2022/10/13 05:04:57;;;;;;;;;;;;;;;21.43;54.76;101534.28;5010226;28;2919;-68
2022/10/13 05:07:23;;;;;;;;;;;;;;;21.41;54.74;101534.19;5012544;28;2738;-62
2022/10/13 05:09:49;;;;;;;;;;;;;;;21.39;54.80;101531.91;5011771;28;2946;-69
2022/10/13 05:12:16;;;;;;;;;;;;;;;21.43;54.77;101532.16;5012337;28;3049;-68
2022/10/13 05:14:42;;;;;;;;;;;;;;;21.41;55.27;101519.78;5012955;28;2960;-68
2022/10/13 05:17:09;;;;;;;;;;;;;;;21.43;54.72;101525.66;5005391;28;3291;-63
2022/10/13 05:19:35;;;;;;;;;;;;;;;21.45;54.91;101525.75;5009912;28;3147;-63
2022/10/13 05:22:01;;;;;;;;;;;;;;;21.42;54.81;101524.19;5014674;28;2831;-63
2022/10/13 05:24:35;;;;;;;;;;;;;;;21.26;54.37;101524.78;5009921;28;2885;-63
2022/10/13 05:27:05;;;;;;;;;;;;;;;21.38;55.48;101518.16;5016009;28;2645;-63
2022/10/13 05:29:31;;;;;;;;;;;;;;;21.41;55.43;101511.13;5016984;28;2441;-63
2022/10/13 05:31:58;;;;;;;;;;;;;;;21.43;55.58;101508.38;5018491;28;1874;-63
2022/10/13 05:34:24;;;;;;;;;;;;;;;21.44;55.29;101509.84;5018333;28;1914;-64
2022/10/13 05:36:50;;;;;;;;;;;;;;;21.45;55.22;101511.34;5016654;28;1693;-64
2022/10/13 05:39:17;;;;;;;;;;;;;;;21.46;55.25;101507.06;5016770;28;1858;-63
2022/10/13 05:41:43;;;;;;;;;;;;;;;21.50;55.84;101510.16;5012791;28;2888;-62
2022/10/13 05:44:18;;;;;;;;;;;;;;;21.54;55.80;101513.28;5015510;28;2968;-62
2022/10/13 05:46:51;;;;;;;;;;;;;;;21.50;55.62;101521.69;5018387;28;2955;-63
2022/10/13 05:49:18;;;;;;;;;;;;;;;21.51;55.76;101520.31;5019108;28;2704;-62
2022/10/13 05:51:47;;;;;;;;;;;;;;;21.51;55.70;101520.31;5018971;28;1666;-61
2022/10/13 05:54:21;;;;;;;;;;;;;;;21.49;55.71;101518.06;5015832;28;1926;-63
2022/10/13 05:56:55;;;;;;;;;;;;;;;21.48;55.90;101522.34;5016145;28;3339;-68
2022/10/13 05:59:24;;;;;;;;;;;;;;;21.50;55.71;101524.59;5018875;28;2346;-68
2022/10/13 06:01:52;;;;;;;;;;;;;;;21.45;55.54;101520.75;5019504;28;3035;-69
2022/10/13 06:04:26;;;;;;;;;;;;;;;21.42;55.32;101524.19;5010907;28;3120;-66
2022/10/13 06:06:52;;;;;;;;;;;;;;;21.19;52.75;101522.97;5009006;28;2877;-59
2022/10/13 06:09:18;;;;;;;;;;;;;;;20.96;50.14;101531.75;5011341;28;3219;-60
2022/10/13 06:11:45;;;;;;;;;;;;;;;20.84;49.06;101531.84;5001577;28;4422;-59
2022/10/13 06:14:11;;;;;;;;;;;;;;;20.61;48.80;101526.97;5009250;28;2985;-58
2022/10/13 06:16:38;;;;;;;;;;;;;;;20.60;48.10;101519.72;5008124;28;3232;-57
2022/10/13 06:19:04;;;;;;;;;;;;;;;21.08;50.40;101518.03;5006379;28;4785;-59
2022/10/13 06:21:32;;;;;;;;;;;;;;;21.49;51.33;101525.97;5012475;28;3462;-58
2022/10/13 06:24:00;;;;;;;;;;;;;;;21.56;50.78;101516.25;5004543;28;4231;-52
2022/10/13 06:26:26;;;;;;;;;;;;;;;21.51;51.34;101514.56;5002841;28;4610;-59
2022/10/13 06:28:52;;;;;;;;;;;;;;;21.50;50.90;101518.81;5010157;28;2921;-58
2022/10/13 06:31:25;;;;;;;;;;;;;;;21.44;52.45;101518.50;5010458;28;2808;-59
2022/10/13 06:33:52;;;;;;;;;;;;;;;21.46;52.07;101530.13;5014250;28;3006;-60
2022/10/13 06:36:18;;;;;;;;;;;;;;;21.44;51.99;101522.13;5010688;28;4381;-61
2022/10/13 06:38:45;;;;;;;;;;;;;;;21.39;53.62;101513.88;5013236;28;3040;-61
2022/10/13 06:41:15;;;;;;;;;;;;;;;21.48;52.95;101521.59;5014681;28;1651;-59
2022/10/13 06:43:41;;;;;;;;;;;;;;;21.48;52.96;101510.06;5015097;28;1651;-59
2022/10/13 06:46:10;;;;;;;;;;;;;;;21.48;52.88;101515.81;5014028;28;2844;-61
2022/10/13 06:48:37;;;;;;;;;;;;;;;21.50;52.41;101507.28;5011649;28;4413;-59
2022/10/13 06:51:04;;;;;;;;;;;;;;;21.47;52.32;101499.94;5014744;28;2738;-60
2022/10/13 06:53:30;;;;;;;;;;;;;;;21.47;52.45;101514.34;5010873;28;3196;-61
2022/10/13 06:55:57;;;;;;;;;;;;;;;21.46;52.36;101502.09;5013671;28;3029;-59
2022/10/13 06:58:23;;;;;;;;;;;;;;;21.46;52.18;101513.59;5008687;28;3134;-61
2022/10/13 07:00:50;;;;;;;;;;;;;;;21.47;52.20;101505.69;5010076;28;2928;-60
2022/10/13 07:03:16;;;;;;;;;;;;;;;21.48;52.02;101504.31;5012193;28;3210;-59
2022/10/13 07:05:42;;;;;;;;;;;;;;;21.49;52.34;101505.81;5012578;28;3149;-60
2022/10/13 07:08:09;;;;;;;;;;;;;;;21.51;51.94;101505.91;5014597;28;1544;-61
2022/10/13 07:10:38;;;;;;;;;;;;;;;21.50;52.02;101501.53;5013086;28;3277;-59
2022/10/13 07:13:04;;;;;;;;;;;;;;;21.23;50.71;101510.88;5009106;28;4520;-58
2022/10/13 07:15:32;;;;;;;;;;;;;;;21.19;51.90;101497.03;5018679;28;2958;-60
2022/10/13 07:17:59;;;;;;;;;;;;;;;21.32;51.31;101499.16;5016029;28;3017;-61
2022/10/13 07:20:26;;;;;;;;;;;;;;;21.32;51.81;101493.38;5015300;28;2794;-61
2022/10/13 07:22:53;;;;;;;;;;;;;;;21.66;53.60;101484.31;5010494;28;4370;-72
2022/10/13 07:25:20;;;;;;;;;;;;;;;21.90;54.96;101502.88;5020896;28;2828;-76
2022/10/13 07:27:46;;;;;;;;;;;;;;;21.99;55.33;101492.50;5022268;28;1665;-73
2022/10/13 07:30:13;;;;;;;;;;;;;;;22.15;56.04;101470.22;5020812;28;2959;-69
2022/10/13 07:32:40;;;;;;;;;;;;;;;22.11;54.08;101463.50;5015640;28;3632;-70
2022/10/13 07:35:08;;;;;;;;;;;;;;;22.13;53.10;101475.88;5012799;28;4270;-69
2022/10/13 07:37:34;;;;;;;;;;;;;;;22.13;52.79;101489.56;5013714;28;3255;-63
2022/10/13 07:40:01;;;;;;;;;;;;;;;22.26;53.84;101477.22;5011194;28;3076;-64
2022/10/13 07:42:27;;;;;;;;;;;;;;;22.42;53.25;101477.25;5017294;28;2807;-62
2022/10/13 07:44:54;;;;;;;;;;;;;;;22.50;52.29;101485.56;5013793;28;3017;-60
2022/10/13 07:47:20;;;;;;;;;;;;;;;22.54;52.02;101483.63;5011413;28;3049;-62
2022/10/13 07:49:47;;;;;;;;;;;;;;;22.50;51.92;101477.66;5026108;28;1613;-60
2022/10/13 07:52:13;;;;;;;;;;;;;;;22.55;52.07;101482.22;5020819;28;2258;-64
2022/10/13 07:54:39;;;;;;;;;;;;;;;22.68;52.90;101479.91;5025488;28;3128;-64
2022/10/13 07:57:06;;;;;;;;;;;;;;;22.63;52.27;101484.00;5021465;28;2773;-63
2022/10/13 07:59:32;;;;;;;;;;;;;;;22.57;51.53;101476.53;5020504;28;1684;-63
2022/10/13 08:01:59;;;;;;;;;;;;;;;22.55;51.82;101482.22;5017660;28;3226;-62
2022/10/13 08:04:29;;;;;;;;;;;;;;;22.56;51.31;101477.94;5015915;28;2618;-64
2022/10/13 08:06:56;;;;;;;;;;;;;;;22.66;52.42;101488.47;5013319;28;3072;-64
2022/10/13 08:09:23;;;;;;;;;;;;;;;22.61;52.17;101475.22;5012590;28;3047;-64
2022/10/13 08:11:49;;;;;;;;;;;;;;;22.55;52.15;101469.94;5015273;28;2930;-64
2022/10/13 08:14:16;;;;;;;;;;;;;;;22.61;51.96;101464.47;5010413;28;3278;-64
2022/10/13 08:16:44;;;;;;;;;;;;;;;22.65;51.50;101455.97;5020375;28;2813;-66
2022/10/13 08:19:16;;;;;;;;;;;;;;;22.67;51.72;101461.84;5020589;28;2919;-66
2022/10/13 08:21:45;;;;;;;;;;;;;;;22.72;52.27;101459.88;5021643;28;2910;-67
2022/10/13 08:24:23;;;;;;;;;;;;;;;22.67;52.09;101458.94;5021320;28;2914;-65
2022/10/13 08:26:50;;;;;;;;;;;;;;;22.69;51.72;101466.97;5022008;28;3072;-67
2022/10/13 08:29:16;;;;;;;;;;;;;;;22.69;51.76;101466.97;5013025;28;3022;-63
2022/10/13 08:31:48;;;;;;;;;;;;;;;22.67;51.42;101463.97;5017405;28;2993;-65
2022/10/13 08:34:20;;;;;;;;;;;;;;;22.60;51.79;101465.84;5017603;28;3037;-67
2022/10/13 08:36:46;;;;;;;;;;;;;;;22.57;51.80;101459.22;5018162;28;2825;-64
2022/10/13 08:39:13;;;;;;;;;;;;;;;22.70;51.75;101456.91;5013497;28;2942;-64
2022/10/13 08:41:40;;;;;;;;;;;;;;;22.70;51.69;101456.91;5018287;28;2816;-64
2022/10/13 08:44:09;;;;;;;;;;;;;;;22.79;51.48;101450.09;5020229;28;3200;-65
2022/10/13 08:47:00;;;;;;;;;;;;;;;22.74;51.38;101448.44;5019912;28;2651;-66
2022/10/13 08:49:27;;;;;;;;;;;;;;;22.71;51.58;101438.94;5016371;28;2887;-65
2022/10/13 08:51:53;;;;;;;;;;;;;;;22.56;51.84;101431.00;5021876;28;1545;-64
2022/10/13 08:54:19;;;;;;;;;;;;;;;22.57;52.04;101436.13;5036333;28;2316;-64
2022/10/13 08:56:49;;;;;;;;;;;;;;;22.76;51.72;101436.97;5019808;28;1964;-63
2022/10/13 08:59:16;;;;;;;;;;;;;;;22.77;51.85;101439.22;5015143;28;2997;-64
2022/10/13 09:01:47;;;;;;;;;;;;;;;22.69;51.77;101426.53;5021049;28;3087;-66
2022/10/13 09:04:25;;;;;;;;;;;;;;;22.68;52.34;101442.41;5026522;28;1592;-65
2022/10/13 09:06:52;;;;;;;;;;;;;;;22.83;51.71;101435.84;5021201;28;3075;-65
2022/10/13 09:09:18;;;;;;;;;;;;;;;22.80;51.37;101442.94;5020646;28;2824;-67
2022/10/13 09:11:45;;;;;;;;;;;;;;;22.81;51.41;101444.41;5017157;28;2681;-62
2022/10/13 09:14:18;;;;;;;;;;;;;;;22.72;51.88;101440.44;5015976;28;2498;-65
2022/10/13 09:16:44;;;;;;;;;;;;;;;22.64;51.81;101436.44;5016946;28;3118;-63
2022/10/13 09:19:12;;;;;;;;;;;;;;;22.81;51.52;101435.75;5007993;28;3057;-62
2022/10/13 09:21:38;;;;;;;;;;;;;;;22.69;51.73;101438.84;5011277;28;3515;-65
2022/10/13 09:24:06;;;;;;;;;;;;;;;22.75;51.49;101432.59;5022682;28;1580;-62
2022/10/13 09:26:35;;;;;;;;;;;;;;;22.73;51.52;101432.50;5015034;28;3042;-63
2022/10/13 09:29:06;;;;;;;;;;;;;;;22.65;51.67;101437.91;5018087;28;3204;-65
2022/10/13 09:31:34;;;;;;;;;;;;;;;22.66;51.75;101442.28;5030438;28;2724;-64
2022/10/13 09:34:01;;;;;;;;;;;;;;;22.52;52.27;101439.50;5008280;28;4572;-63
2022/10/13 09:36:27;;;;;;;;;;;;;;;22.73;52.07;101438.28;5012865;28;3273;-63
2022/10/13 09:39:07;;;;;;;;;;;;;;;22.69;51.45;101443.88;5012295;28;3197;-61
2022/10/13 09:41:35;;;;;;;;;;;;;;;22.73;51.98;101439.03;5012131;28;3197;-65
2022/10/13 09:44:11;;;;;;;;;;;;;;;22.91;52.00;101441.25;5015385;28;2809;-63
2022/10/13 09:46:50;;;;;;;;;;;;;;;22.93;51.73;101442.09;5014137;28;2785;-64
2022/10/13 09:49:26;;;;;;;;;;;;;;;22.87;51.41;101441.81;5020163;28;2906;-65
2022/10/13 09:51:56;;;;;;;;;;;;;;;22.55;52.09;101438.91;5011482;28;3351;-65
2022/10/13 09:54:27;;;;;;;;;;;;;;;22.59;52.46;101442.00;5013863;28;2891;-62
2022/10/13 09:56:58;;;;;;;;;;;;;;;22.85;51.68;101446.75;5012824;28;3042;-65
2022/10/13 09:59:32;;;;;;;;;;;;;;;22.77;51.91;101441.38;5015735;28;2686;-64
2022/10/13 10:01:59;;;;;;;;;;;;;;;22.65;51.72;101443.69;5012459;28;3032;-67
2022/10/13 10:04:29;;;;;;;;;;;;;;;22.52;51.69;101437.34;5043862;28;3657;-63
2022/10/13 10:06:56;;;;;;;;;;;;;;;22.81;51.78;101435.75;5026438;28;3090;-63
2022/10/13 10:09:32;;;;;;;;;;;;;;;22.68;51.98;101433.72;5012513;28;3104;-62
2022/10/13 10:11:59;;;;;;;;;;;;;;;22.79;51.65;101424.09;5045078;28;3110;-63
2022/10/13 10:14:26;;;;;;;;;;;;;;;22.78;51.73;101425.53;5013692;28;3285;-66
2022/10/13 10:17:03;;;;;;;;;;;;;;;22.71;51.68;101423.75;5016355;28;3303;-64
2022/10/13 10:19:41;;;;;;;;;;;;;;;22.59;51.78;101424.69;5044434;28;4365;-61
2022/10/13 10:22:13;;;;;;;;;;;;;;;22.64;52.08;101425.63;5021080;28;2626;-64
2022/10/13 10:24:48;;;;;;;;;;;;;;;22.73;51.83;101410.16;5011793;28;3263;-63
2022/10/13 10:27:18;;;;;;;;;;;;;;;22.77;52.02;101407.47;5026066;28;3061;-62
2022/10/13 10:29:52;;;;;;;;;;;;;;;22.74;51.38;101405.13;5046277;28;3037;-65
2022/10/13 10:32:37;;;;;;;;;;;;;;;22.61;51.61;101397.28;5039768;28;3181;-67
2022/10/13 10:35:13;;;;;;;;;;;;;;;22.83;51.68;101404.09;5010614;28;3299;-67
2022/10/13 10:37:53;;;;;;;;;;;;;;;22.77;51.17;101392.28;5016619;28;2879;-63
2022/10/13 10:40:22;;;;;;;;;;;;;;;22.70;51.71;101394.16;5013409;28;4939;-65
2022/10/13 10:42:51;;;;;;;;;;;;;;;22.76;52.13;101385.75;5007887;28;2978;-63
2022/10/13 10:45:25;;;;;;;;;;;;;;;22.72;51.33;101384.81;5012754;28;3487;-65
2022/10/13 10:47:52;;;;;;;;;;;;;;;22.74;51.71;101387.78;5012045;28;3069;-64
2022/10/13 10:50:20;;;;;;;;;;;;;;;22.85;51.90;101371.69;5017727;28;2856;-64
2022/10/13 10:52:49;;;;;;;;;;;;;;;22.80;51.67;101362.81;5018662;28;4649;-66
2022/10/13 10:55:19;;;;;;;;;;;;;;;22.86;51.50;101358.72;5010807;28;4717;-70
2022/10/13 10:57:49;;;;;;;;;;;;;;;22.74;51.44;101358.94;5016344;28;4195;-64
2022/10/13 11:00:16;;;;;;;;;;;;;;;22.66;51.48;101364.34;5002197;28;3240;-65
2022/10/13 11:02:52;;;;;;;;;;;;;;;22.68;51.54;101361.56;5014125;28;3190;-69
2022/10/13 11:05:18;;;;;;;;;;;;;;;22.58;51.79;101356.78;5007823;28;3232;-67
2022/10/13 11:07:45;;;;;;;;;;;;;;;22.59;51.58;101354.66;5024240;28;3187;-67
2022/10/13 11:10:17;;;;;;;;;;;;;;;22.68;51.81;101364.44;5014821;28;3170;-67
2022/10/13 11:12:50;;;;;;;;;;;;;;;22.80;51.69;101373.63;5015086;28;3229;-73
2022/10/13 11:15:23;;;;;;;;;;;;;;;22.78;51.24;101362.00;5012109;28;3101;-67
2022/10/13 11:17:49;;;;;;;;;;;;;;;22.67;51.69;101366.56;5014190;28;3536;-65
2022/10/13 11:20:16;;;;;;;;;;;;;;;22.72;51.87;101358.84;5004302;28;3081;-61
2022/10/13 11:23:02;;;;;;;;;;;;;;;22.89;51.50;101358.16;5014266;28;3108;-65
2022/10/13 11:25:39;;;;;;;;;;;;;;;22.73;51.51;101363.97;5011197;28;2987;-64
2022/10/13 11:28:20;;;;;;;;;;;;;;;22.88;51.88;101350.88;5008548;28;3110;-66
2022/10/13 11:30:50;;;;;;;;;;;;;;;22.87;51.61;101343.63;5009238;28;3008;-65
2022/10/13 11:33:36;;;;;;;;;;;;;;;22.72;51.55;101344.41;5045542;28;3539;-62
2022/10/13 11:36:21;;;;;;;;;;;;;;;22.92;51.11;101339.50;5009877;28;3107;-62
2022/10/13 11:38:48;;;;;;;;;;;;;;;23.08;50.66;101333.72;5014314;28;2934;-63
2022/10/13 11:41:16;;;;;;;;;;;;;;;23.05;50.94;101322.75;5003537;28;2974;-63
2022/10/13 11:43:48;;;;;;;;;;;;;;;22.82;51.15;101321.75;5007233;28;2954;-63
2022/10/13 11:46:21;;;;;;;;;;;;;;;22.87;51.32;101317.63;5026799;28;2926;-65
2022/10/13 11:48:57;;;;;;;;;;;;;;;22.95;51.40;101318.00;5011409;28;2986;-64
2022/10/13 11:51:24;;;;;;;;;;;;;;;22.85;51.51;101317.56;5045637;28;2908;-65
2022/10/13 11:54:09;;;;;;;;;;;;;;;22.92;51.65;101319.28;5006857;28;3013;-66
2022/10/13 11:56:46;;;;;;;;;;;;;;;22.62;51.73;101317.97;5008314;28;3032;-64
2022/10/13 11:59:25;;;;;;;;;;;;;;;22.16;51.46;101309.41;5008100;28;3044;-62
2022/10/13 12:02:09;;;;;;;;;;;;;;;22.22;50.60;101314.72;5006945;28;4393;-60
2022/10/13 12:04:36;;;;;;;;;;;;;;;22.28;51.67;101310.00;5009807;28;4574;-62
2022/10/13 12:07:03;;;;;;;;;;;;;;;22.27;52.24;101313.53;5007973;28;3084;-62
2022/10/13 12:09:30;;;;;;;;;;;;;;;22.24;52.31;101320.59;5012842;28;2996;-63
2022/10/13 12:11:56;;;;;;;;;;;;;;;22.22;51.80;101315.50;5023035;28;4492;-63
2022/10/13 12:14:25;;;;;;;;;;;;;;;22.18;51.96;101313.13;5013449;28;2860;-63
2022/10/13 12:16:54;;;;;;;;;;;;;;;22.18;52.49;101316.00;5011016;28;2975;-62
2022/10/13 12:19:26;;;;;;;;;;;;;;;22.21;52.37;101313.22;5013822;28;2812;-63
2022/10/13 12:21:53;;;;;;;;;;;;;;;22.18;52.36;101313.13;5011056;28;4554;-61
2022/10/13 12:24:24;;;;;;;;;;;;;;;22.18;52.74;101307.38;5012787;28;3414;-62
2022/10/13 12:26:50;;;;;;;;;;;;;;;22.20;52.63;101308.88;5008703;28;3024;-63
2022/10/13 12:29:16;;;;;;;;;;;;;;;22.20;52.92;101303.84;5014830;28;2898;-64
2022/10/13 12:31:43;;;;;;;;;;;;;;;22.16;53.06;101307.28;5009776;28;4628;-62
2022/10/13 12:34:24;;;;;;;;;;;;;;;22.15;53.27;101314.44;5001379;28;3203;-62
2022/10/13 12:37:00;;;;;;;;;;;;;;;22.30;53.08;101307.19;4999982;28;4441;-58
2022/10/13 12:39:27;;;;;;;;;;;;;;;22.24;53.27;101320.59;5012801;28;2891;-63
2022/10/13 12:41:53;;;;;;;;;;;;;;;22.22;53.23;101318.38;5011449;28;3113;-63
2022/10/13 12:44:20;;;;;;;;;;;;;;;22.20;53.56;101314.63;5045587;28;2608;-61
2022/10/13 12:46:47;;;;;;;;;;;;;;;22.34;53.40;101315.31;5028710;28;3504;-63
2022/10/13 12:49:24;;;;;;;;;;;;;;;22.22;53.61;101317.63;5018719;28;4295;-61
2022/10/13 12:52:05;;;;;;;;;;;;;;;22.17;53.42;101317.44;5013314;28;2969;-60
2022/10/13 12:54:32;;;;;;;;;;;;;;;22.17;53.45;101313.78;5001176;28;3324;-55
2022/10/13 12:56:59;;;;;;;;;;;;;;;22.17;53.83;101308.00;5012709;28;3011;-61